Waitakeres Weather Go to January February March April May June
April Summaries Go to July August September October November December
Details 2007 2008 2009 2010 2011 2012 2013 2014 2015 2016 2017
Highest Temperature 22.2C 22.0C 21.3C 24.1C 23.6C 24.7C 23.7C 23.8C 25.4C 24.4C 25.9C
Lowest Temperature 9.1C 6.5C 6.9C 7.6C 6.6C 7.4C 7.8C 7.7C 7.4C 8.8C 8.9C
Average Temperature 15.7C 16.2C 15.3C 15.2C 14.9C 15.2C 15.8C 16.1C 15.6C 15.5C 16.1C
Highest Pressure 1026.0 hPa 1028.0 hPa 1034.0 hPa 1032.1 hPa 1029.0 hPa 1036.6 hPa 1029.2 hPa 1026.3 hPa 1029.9 hPa 1030.5 hPa 1030.0 hPa
Lowest Pressure 994.0 hPa 1005.0 hPa 1003.0 hPa 1003.8 hPa 1001.8 hPa 1002.0 hPa 999.7 hPa 993.2 hPa 992.4 hPa 1011.2 hPa 998.1 hPa
Total Rain - 144.9 mm 68.8 mm 56.6 mm 138.2 mm 33.0 mm 130.6 mm 102.6 mm 86.2 mm 67.4 mm 176.2 mm
Most Rain in 24 hrs - 49.0 mm 14.4 mm 17.2 mm 37.8 mm 13.4 mm 28.0 mm 23.2 mm 19.4 mm 28.6 mm 52.0 mm
Heaviest Rain       109.8 mm/hr 106.6 mm/hr 45.8 mm/hr 157.8 mm/hr 198.6 mm/hr 162.2 mm/hr 81.8 mm/hr 144.0 mm/hr
Number of Rain Days - 17 days 14 days 15 days 18 days 11 days 23 days 21 days 18 days 15 days 23 days
Highest Gust       22.5 km/hr 32.2 km/hr 29.0 km/hr 30.6 km/hr 37.0 km/hr 29.0 km/hr 30.6 km/hr 32.2 km/hr
Highest Average Wind       7.7 km/hr 10.6 km/hr 10.1 km/hr 8.0 km/hr 11.3 km/hr 9.7 km/hr 4.8 km/hr 8.0 km/hr
Highest Windrun       83.3 km 85.9 km 103.4 km 114.2 km 117.8 km 82.0 km 22.7 km 65.9 km
Back to Current Weather Go To Rainfall Data
Tabled Data - scroll down 2017 Temperature Pressure Rain Wind
for earlier years Maximum Minimum Average Maximum Minimum Day Total Maximum Rain Rate High Gust Highest Av Run
C C C hPa hPa mm mm/hr time km/h km/h km
01/04/2017 24.8C 13.1C 17.5C 1021.4 hPa 1018.8 hPa 0.0 mm 0.0 mm/hr 00:00 hrs 11.3 km/hr 1.6 km/hr 7.8 km
02/04/2017 23.2C 15.7C 19.6C 1020.0 hPa 1017.1 hPa 11.4 mm 144.0 mm/hr 16:53 hrs 9.7 km/hr 3.2 km/hr 5.4 km
03/04/2017 25.9C 18.2C 20.9C 1018.4 hPa 1015.6 hPa 1.0 mm 26.0 mm/hr 21:18 hrs 9.7 km/hr 3.2 km/hr 2.9 km
04/04/2017 21.9C 16.3C 19.7C 1016.3 hPa 1008.3 hPa 52.0 mm 62.0 mm/hr 20:50 hrs 22.5 km/hr 6.4 km/hr 52.0 km
05/04/2017 22.2C 15.4C 19.4C 1008.5 hPa 1002.3 hPa 20.2 mm 64.4 mm/hr 03:37 hrs 19.3 km/hr 4.8 km/hr 39.8 km
06/04/2017 20.7C 13.7C 16.0C 1014.0 hPa 1006.4 hPa 3.6 mm 20.0 mm/hr 13:17 hrs 19.3 km/hr 3.2 km/hr 24.0 km
07/04/2017 20.8C 11.1C 15.5C 1023.3 hPa 1013.8 hPa 0.8 mm 4.6 mm/hr 16:35 hrs 12.9 km/hr 3.2 km/hr 8.2 km
08/04/2017 21.4C 10.7C 15.1C 1027.8 hPa 1023.1 hPa 0.2 mm 0.0 mm/hr 00:00 hrs 16.1 km/hr 3.2 km/hr 16.2 km
09/04/2017 19.7C 11.9C 15.5C 1027.8 hPa 1023.7 hPa 0.2 mm 0.0 mm/hr 00:00 hrs 19.3 km/hr 4.8 km/hr 29.2 km
10/04/2017 22.5C 14.1C 17.4C 1024.5 hPa 1020.6 hPa 0.6 mm 1.6 mm/hr 20:41 hrs 20.9 km/hr 6.4 km/hr 51.0 km
11/04/2017 22.4C 15.6C 18.8C 1021.4 hPa 1015.8 hPa 0.2 mm 0.0 mm/hr 00:00 hrs 24.1 km/hr 8.0 km/hr 62.1 km
12/04/2017 20.1C 17.4C 18.9C 1015.9 hPa 1009.1 hPa 13.2 mm 102.8 mm/hr 08:49 hrs 24.1 km/hr 8.0 km/hr 65.9 km
13/04/2017 18.7C 15.7C 17.5C 1009.5 hPa 999.5 hPa 26.2 mm 35.0 mm/hr 00:46 hrs 32.2 km/hr 6.4 km/hr 43.0 km
14/04/2017 21.0C 15.1C 17.0C 1007.8 hPa 1003.7 hPa 2.0 mm 7.6 mm/hr 23:51 hrs 16.1 km/hr 4.8 km/hr 27.9 km
15/04/2017 19.4C 11.7C 15.5C 1011.3 hPa 1006.8 hPa 8.4 mm 45.6 mm/hr 11:01 hrs 14.5 km/hr 3.2 km/hr 16.0 km
16/04/2017 19.9C 11.8C 15.2C 1012.3 hPa 1010.2 hPa 6.4 mm 20.4 mm/hr 18:24 hrs 12.9 km/hr 4.8 km/hr 17.0 km
17/04/2017 18.2C 12.1C 14.8C 1018.2 hPa 1011.5 hPa 9.0 mm 44.4 mm/hr 02:52 hrs 12.9 km/hr 3.2 km/hr 11.6 km
18/04/2017 20.6C 10.3C 14.1C 1021.7 hPa 1018.1 hPa 0.2 mm 0.0 mm/hr 00:00 hrs 9.7 km/hr 1.6 km/hr 2.5 km
19/04/2017 19.5C 10.2C 13.6C 1021.8 hPa 1018.9 hPa 0.2 mm 0.0 mm/hr 00:00 hrs 14.5 km/hr 1.6 km/hr 5.9 km
20/04/2017 18.2C 10.1C 13.3C 1023.6 hPa 1019.0 hPa 3.4 mm 53.8 mm/hr 05:27 hrs 12.9 km/hr 1.6 km/hr 4.4 km
21/04/2017 17.9C 8.9C 13.1C 1029.3 hPa 1023.4 hPa 0.0 mm 0.0 mm/hr 00:00 hrs 12.9 km/hr 3.2 km/hr 6.5 km
22/04/2017 19.5C 11.6C 15.0C 1030.0 hPa 1027.1 hPa 0.0 mm 0.0 mm/hr 00:00 hrs 9.7 km/hr 1.6 km/hr 3.8 km
23/04/2017 19.3C 10.6C 14.5C 1028.4 hPa 1019.3 hPa 0.2 mm 0.0 mm/hr 00:00 hrs 12.9 km/hr 3.2 km/hr 11.4 km
24/04/2017 19.7C 10.3C 14.8C 1019.4 hPa 1014.6 hPa 0.0 mm 0.0 mm/hr 00:00 hrs 12.9 km/hr 3.2 km/hr 7.6 km
25/04/2017 21.6C 9.7C 13.7C 1020.0 hPa 1016.1 hPa 0.0 mm 0.0 mm/hr 00:00 hrs 11.3 km/hr 3.2 km/hr 6.8 km
26/04/2017 21.4C 9.7C 13.7C 1021.6 hPa 1019.5 hPa 0.0 mm 0.0 mm/hr 00:00 hrs 8.0 km/hr 1.6 km/hr 3.4 km
27/04/2017 21.2C 10.7C 14.6C 1022.0 hPa 1019.3 hPa 0.0 mm 0.0 mm/hr 00:00 hrs 12.9 km/hr 3.2 km/hr 6.5 km
28/04/2017 22.2C 11.2C 15.9C 1019.9 hPa 1015.2 hPa 2.2 mm 19.2 mm/hr 17:30 hrs 16.1 km/hr 3.2 km/hr 14.5 km
29/04/2017 17.6C 15.1C 16.3C 1015.5 hPa 1003.6 hPa 7.8 mm 9.6 mm/hr 22:01 hrs 17.7 km/hr 4.8 km/hr 18.5 km
30/04/2017 17.7C 11.5C 15.4C 1003.8 hPa 998.1 hPa 6.8 mm 11.0 mm/hr 16:29 hrs 16.1 km/hr 4.8 km/hr 35.3 km
Back to top                        
Tabled Data - scroll down 2016 Temperature Pressure Rain Wind
for earlier years Maximum Minimum Average Maximum Minimum Day Total Maximum Rain Rate High Gust Highest Av Run
C C C hPa hPa mm mm/hr time km/h km/h km
01/04/2016 19.6C 13.8C 17.2C 1024.1 hPa 1018.2 hPa 3.4 mm 5.2 mm/hr 19:07 hrs 19.3 km/hr 4.8 km/hr 21.4 km
02/04/2016 24.4C 16.7C 19.3C 1018.9 hPa 1016.0 hPa 3.0 mm 20.4 mm/hr 04:40 hrs 14.5 km/hr 3.2 km/hr 6.6 km
03/04/2016 23.3C 15.8C 19.1C 1018.1 hPa 1015.4 hPa 1.6 mm 12.6 mm/hr 04:20 hrs 9.7 km/hr 1.6 km/hr 1.3 km
04/04/2016 21.1C 12.6C 16.6C 1015.9 hPa 1013.5 hPa 0.8 mm 2.4 mm/hr 19:22 hrs 11.3 km/hr 1.6 km/hr 5.0 km
05/04/2016 21.2C 11.8C 15.5C 1020.3 hPa 1013.6 hPa 0.4 mm 0.0 mm/hr 00:00 hrs 12.9 km/hr 1.6 km/hr 6.4 km
06/04/2016 20.4C 9.5C 13.8C 1022.9 hPa 1020.1 hPa 0.0 mm 0.0 mm/hr 00:00 hrs 11.3 km/hr 3.2 km/hr 7.9 km
07/04/2016 20.9C 9.4C 14.2C 1022.0 hPa 1018.0 hPa 0.0 mm 0.0 mm/hr 00:00 hrs 9.7 km/hr 1.6 km/hr 0.7 km
08/04/2016 20.0C 10.9C 15.2C 1019.0 hPa 1014.9 hPa 4.0 mm 11.4 mm/hr 12:14 hrs 9.7 km/hr 3.2 km/hr 5.0 km
09/04/2016 20.7C 11.6C 15.0C 1021.9 hPa 1018.2 hPa 0.0 mm 0.0 mm/hr 00:00 hrs 9.7 km/hr 0.0 km/hr 0.0 km
10/04/2016 18.5C 10.9C 14.2C 1022.0 hPa 1018.8 hPa 1.4 mm 2.6 mm/hr 12:45 hrs 6.4 km/hr 0.0 km/hr 0.0 km
11/04/2016 20.9C 13.1C 16.3C 1018.8 hPa 1016.6 hPa 0.0 mm 0.0 mm/hr 00:00 hrs 11.3 km/hr 0.0 km/hr 0.0 km
12/04/2016 22.0C 13.6C 17.6C 1018.6 hPa 1016.4 hPa 2.8 mm 8.0 mm/hr 12:55 hrs 14.5 km/hr 3.2 km/hr 14.1 km
13/04/2016 19.4C 12.0C 16.2C 1022.8 hPa 1016.1 hPa 7.0 mm 62.0 mm/hr 04:14 hrs 9.7 km/hr 1.6 km/hr 3.1 km
14/04/2016 21.3C 10.2C 14.9C 1027.0 hPa 1022.4 hPa 0.0 mm 0.0 mm/hr 00:00 hrs 12.9 km/hr 3.2 km/hr 9.9 km
15/04/2016 21.5C 8.8C 13.8C 1026.5 hPa 1022.9 hPa 0.0 mm 0.0 mm/hr 00:00 hrs 8.0 km/hr 1.6 km/hr 0.7 km
16/04/2016 20.2C 10.7C 14.8C 1024.7 hPa 1019.6 hPa 1.4 mm 1.2 mm/hr 23:56 hrs 20.9 km/hr 4.8 km/hr 22.7 km
17/04/2016 18.3C 14.1C 15.8C 1019.6 hPa 1011.7 hPa 28.6 mm 81.8 mm/hr 14:28 hrs 16.1 km/hr 3.2 km/hr 16.1 km
18/04/2016 20.3C 12.7C 16.1C 1018.9 hPa 1011.2 hPa 0.2 mm 0.0 mm/hr 00:00 hrs 14.5 km/hr 3.2 km/hr 13.2 km
19/04/2016 21.6C 12.0C 15.5C 1027.8 hPa 1018.8 hPa 0.0 mm 0.0 mm/hr 00:00 hrs 11.3 km/hr 3.2 km/hr 2.6 km
20/04/2016 20.9C 11.2C 15.2C 1028.7 hPa 1026.0 hPa 0.2 mm 0.0 mm/hr 00:00 hrs 8.0 km/hr 1.6 km/hr 0.1 km
21/04/2016 21.9C 11.8C 15.1C 1029.6 hPa 1027.5 hPa 0.0 mm 0.0 mm/hr 00:00 hrs 8.0 km/hr 1.6 km/hr 0.2 km
22/04/2016 21.1C 11.3C 15.4C 1029.3 hPa 1024.3 hPa 0.8 mm 1.8 mm/hr 02:15 hrs 12.9 km/hr 1.6 km/hr 8.2 km
23/04/2016 22.2C 10.7C 15.4C 1024.4 hPa 1016.7 hPa 0.0 mm 0.0 mm/hr 00:00 hrs 14.5 km/hr 3.2 km/hr 6.3 km
24/04/2016 17.6C 10.0C 14.9C 1018.2 hPa 1014.4 hPa 11.8 mm 59.6 mm/hr 06:09 hrs 8.0 km/hr 1.6 km/hr 0.6 km
25/04/2016 19.3C 9.9C 14.4C 1020.8 hPa 1017.3 hPa 0.0 mm 0.0 mm/hr 00:00 hrs 16.1 km/hr 3.2 km/hr 11.2 km
26/04/2016 19.4C 11.4C 15.5C 1022.4 hPa 1018.4 hPa 0.0 mm 0.0 mm/hr 00:00 hrs 30.6 km/hr 4.8 km/hr 18.6 km
27/04/2016 20.6C 10.3C 14.2C 1028.5 hPa 1022.3 hPa 0.0 mm 0.0 mm/hr 00:00 hrs 9.7 km/hr 1.6 km/hr 0.3 km
28/04/2016 18.6C 12.8C 14.9C 1030.5 hPa 1028.3 hPa 0.0 mm 0.0 mm/hr 00:00 hrs 8.0 km/hr 0.0 km/hr 0.0 km
29/04/2016 17.9C 13.0C 14.7C 1030.1 hPa 1026.5 hPa 0.0 mm 0.0 mm/hr 00:00 hrs 0.0 km/hr 0.0 km/hr 0.0 km
30/04/2016 20.1C 11.1C 15.0C 1029.8 hPa 1025.4 hPa 0.0 mm 0.0 mm/hr 00:00 hrs 9.7 km/hr 1.6 km/hr 0.1 km
Back to top                        
Tabled Data - scroll down 2015 Temperature Pressure Rain Wind
for earlier years Maximum Minimum Average Maximum Minimum Day Total Maximum Rain Rate High Gust Highest Av Run
C C C hPa hPa mm mm/hr time km/h km/h km
01/04/2015 23.1C 11.0C 15.7C 1029.0 hPa 1023.6 hPa 0.0 mm 0.0 mm/hr 00:00 hrs 8.0 km/hr 1.6 km/hr 3.8 km
02/04/2015 22.5C 12.1C 16.9C 1029.8 hPa 1027.0 hPa 0.0 mm 0.0 mm/hr 00:00 hrs 11.3 km/hr 3.2 km/hr 3.9 km
03/04/2015 22.6C 11.6C 16.0C 1028.8 hPa 1025.0 hPa 0.0 mm 0.0 mm/hr 00:00 hrs 14.5 km/hr 3.2 km/hr 8.6 km
04/04/2015 22.1C 11.1C 16.1C 1025.9 hPa 1020.1 hPa 0.0 mm 0.0 mm/hr 00:00 hrs 9.7 km/hr 1.6 km/hr 2.1 km
05/04/2015 20.6C 14.4C 17.0C 1023.8 hPa 1020.9 hPa 2.2 mm 84.8 mm/hr 05:09 hrs 9.7 km/hr 1.6 km/hr 0.5 km
06/04/2015 23.5C 12.9C 17.2C 1025.4 hPa 1022.8 hPa 0.0 mm 0.0 mm/hr 00:00 hrs 16.1 km/hr 3.2 km/hr 17.9 km
07/04/2015 25.4C 12.9C 18.5C 1025.1 hPa 1022.0 hPa 0.0 mm 0.0 mm/hr 00:00 hrs 12.9 km/hr 3.2 km/hr 12.1 km
08/04/2015 22.8C 13.6C 18.6C 1023.5 hPa 1020.0 hPa 0.0 mm 0.0 mm/hr 00:00 hrs 11.3 km/hr 3.2 km/hr 4.5 km
09/04/2015 20.6C 17.5C 19.0C 1020.3 hPa 1015.6 hPa 0.4 mm 0.0 mm/hr 00:00 hrs 8.0 km/hr 1.6 km/hr 1.4 km
10/04/2015 24.0C 16.0C 18.9C 1015.9 hPa 1003.5 hPa 8.0 mm 134.0 mm/hr 17:51 hrs 22.5 km/hr 6.4 km/hr 35.5 km
11/04/2015 22.2C 12.9C 17.3C 1013.6 hPa 1003.1 hPa 0.2 mm 1.2 mm/hr 00:00 hrs 16.1 km/hr 3.2 km/hr 23.0 km
12/04/2015 19.2C 12.6C 15.4C 1013.2 hPa 1003.7 hPa 0.8 mm 0.0 mm/hr 00:00 hrs 12.9 km/hr 1.6 km/hr 4.6 km
13/04/2015 18.5C 9.0C 13.6C 1003.7 hPa 992.4 hPa 19.4 mm 162.2 mm/hr 02:20 hrs 19.3 km/hr 4.8 km/hr 48.7 km
14/04/2015 14.6C 7.4C 10.1C 1011.8 hPa 994.7 hPa 10.0 mm 49.6 mm/hr 11:27 hrs 19.3 km/hr 4.8 km/hr 30.2 km
15/04/2015 17.9C 7.9C 12.7C 1017.5 hPa 1011.7 hPa 1.0 mm 4.4 mm/hr 03:01 hrs 19.3 km/hr 4.8 km/hr 33.5 km
16/04/2015 19.1C 9.4C 13.6C 1023.9 hPa 1017.3 hPa 1.6 mm 14.6 mm/hr 02:43 hrs 11.3 km/hr 1.6 km/hr 9.0 km
17/04/2015 19.6C 9.7C 13.7C 1024.5 hPa 1021.1 hPa 0.4 mm 0.0 mm/hr 00:00 hrs 11.3 km/hr 1.6 km/hr 4.3 km
18/04/2015 17.5C 11.2C 13.5C 1021.9 hPa 1015.6 hPa 9.4 mm 35.4 mm/hr 10:13 hrs 29.0 km/hr 4.8 km/hr 14.2 km
19/04/2015 21.8C 11.3C 15.1C 1027.2 hPa 1021.6 hPa 0.2 mm 0.0 mm/hr 00:00 hrs 17.7 km/hr 4.8 km/hr 27.0 km
20/04/2015 22.6C 12.9C 16.3C 1029.0 hPa 1025.9 hPa 0.0 mm 0.0 mm/hr 00:00 hrs 12.9 km/hr 3.2 km/hr 9.2 km
21/04/2015 22.1C 12.8C 16.3C 1029.9 hPa 1027.3 hPa 0.2 mm 0.0 mm/hr 00:00 hrs 9.7 km/hr 1.6 km/hr 4.6 km
22/04/2015 20.3C 11.8C 15.6C 1028.6 hPa 1026.6 hPa 0.0 mm 0.0 mm/hr 00:00 hrs 6.4 km/hr 1.6 km/hr 0.7 km
23/04/2015 21.8C 12.1C 15.4C 1028.9 hPa 1027.3 hPa 0.2 mm 0.0 mm/hr 00:00 hrs 12.9 km/hr 3.2 km/hr 8.7 km
24/04/2015 20.5C 11.6C 15.3C 1028.5 hPa 1025.8 hPa 0.0 mm 0.0 mm/hr 00:00 hrs 22.5 km/hr 4.8 km/hr 31.0 km
25/04/2015 20.5C 11.4C 14.8C 1027.1 hPa 1022.7 hPa 0.0 mm 0.0 mm/hr 00:00 hrs 19.3 km/hr 6.4 km/hr 34.2 km
26/04/2015 20.5C 10.3C 15.5C 1023.2 hPa 1013.7 hPa 0.0 mm 0.0 mm/hr 00:00 hrs 25.7 km/hr 6.4 km/hr 50.5 km
27/04/2015 19.7C 16.3C 17.5C 1013.7 hPa 1001.2 hPa 16.8 mm 15.4 mm/hr 07:51 hrs 27.4 km/hr 9.7 km/hr 82.0 km
28/04/2015 17.3C 11.3C 14.6C 1009.3 hPa 1001.4 hPa 9.0 mm 84.8 mm/hr 13:01 hrs 14.5 km/hr 4.8 km/hr 26.9 km
29/04/2015 17.7C 11.1C 14.3C 1011.5 hPa 1008.7 hPa 1.4 mm 13.6 mm/hr 16:25 hrs 19.3 km/hr 4.8 km/hr 45.8 km
30/04/2015 16.7C 11.5C 13.6C 1023.2 hPa 1009.5 hPa 5.0 mm 58.2 mm/hr 02:30 hrs 25.7 km/hr 6.4 km/hr 63.3 km
Back to top                        
Tabled Data - scroll down 2014 Temperature Pressure Rain Wind
for earlier years Maximum Minimum Average Maximum Minimum Day Total Maximum Rain Rate High Gust Highest Av Run
C C C hPa hPa mm mm/hr time km/h km/h km
01/04/2014 23.6C 10.7C 16.2C 1026.3 hPa 1023.3 hPa 0.0 mm 0.0 mm/hr 00:00 hrs 8.0 km/hr 1.6 km/hr 6.1 km
02/04/2014 23.8C 13.8C 17.8C 1025.9 hPa 1023.5 hPa 0.0 mm 0.0 mm/hr 00:00 hrs 11.3 km/hr 3.2 km/hr 9.5 km
03/04/2014 22.4C 13.6C 17.0C 1025.3 hPa 1022.7 hPa 0.4 mm 0.0 mm/hr 00:00 hrs 9.7 km/hr 1.6 km/hr 3.0 km
04/04/2014 20.9C 12.7C 15.7C 1023.5 hPa 1019.7 hPa 0.6 mm 1.4 mm/hr 00:56 hrs 8.0 km/hr 3.2 km/hr 2.1 km
05/04/2014 22.1C 11.4C 15.8C 1021.1 hPa 1016.2 hPa 0.2 mm 0.0 mm/hr 00:00 hrs 11.3 km/hr 3.2 km/hr 22.2 km
06/04/2014 22.4C 12.3C 16.7C 1016.4 hPa 1012.6 hPa 0.0 mm 0.0 mm/hr 00:00 hrs 8.0 km/hr 3.2 km/hr 11.5 km
07/04/2014 21.8C 13.7C 17.3C 1012.9 hPa 1010.3 hPa 0.0 mm 0.0 mm/hr 00:00 hrs 11.3 km/hr 3.2 km/hr 21.2 km
08/04/2014 22.7C 16.0C 18.4C 1011.7 hPa 1009.2 hPa 0.0 mm 0.0 mm/hr 00:00 hrs 12.9 km/hr 1.6 km/hr 11.6 km
09/04/2014 21.6C 14.6C 17.7C 1014.3 hPa 1010.8 hPa 0.0 mm 0.0 mm/hr 00:00 hrs 11.3 km/hr 3.2 km/hr 3.7 km
10/04/2014 22.2C 15.0C 18.0C 1015.7 hPa 1012.7 hPa 0.0 mm 0.0 mm/hr 00:00 hrs 16.1 km/hr 3.2 km/hr 7.8 km
11/04/2014 22.1C 14.7C 17.4C 1012.9 hPa 1008.1 hPa 1.4 mm 37.6 mm/hr 18:22 hrs 11.3 km/hr 3.2 km/hr 8.5 km
12/04/2014 21.7C 12.6C 16.2C 1018.2 hPa 1010.7 hPa 0.2 mm 0.0 mm/hr 00:00 hrs 12.9 km/hr 3.2 km/hr 13.8 km
13/04/2014 22.8C 11.6C 16.9C 1022.6 hPa 1018.2 hPa 0.2 mm 0.0 mm/hr 00:00 hrs 16.1 km/hr 3.2 km/hr 13.4 km
14/04/2014 21.1C 16.2C 17.9C 1022.8 hPa 1020.2 hPa 0.6 mm 0.8 mm/hr 03:37 hrs 19.3 km/hr 4.8 km/hr 40.4 km
15/04/2014 19.6C 17.3C 18.0C 1021.2 hPa 1017.0 hPa 0.2 mm 0.0 mm/hr 00:00 hrs 27.4 km/hr 6.4 km/hr 84.3 km
16/04/2014 20.1C 15.7C 17.8C 1017.1 hPa 1005.4 hPa 8.2 mm 4.8 mm/hr 23:46 hrs 25.7 km/hr 6.4 km/hr 58.6 km
17/04/2014 22.1C 15.9C 18.4C 1005.7 hPa 993.2 hPa 23.2 mm 7.8 mm/hr 00:27 hrs 37.0 km/hr 11.3 km/hr 117.8 km
18/04/2014 23.1C 13.6C 17.3C 1007.9 hPa 1003.5 hPa 5.4 mm 106.6 mm/hr 15:56 hrs 17.7 km/hr 4.8 km/hr 15.2 km
19/04/2014 21.6C 13.7C 17.0C 1009.3 hPa 1006.0 hPa 1.6 mm 4.6 mm/hr 02:14 hrs 17.7 km/hr 4.8 km/hr 18.9 km
20/04/2014 17.7C 12.2C 14.9C 1011.7 hPa 1008.1 hPa 22.4 mm 144.0 mm/hr 16:37 hrs 14.5 km/hr 4.8 km/hr 21.3 km
21/04/2014 19.4C 12.3C 14.8C 1017.4 hPa 1011.3 hPa 3.0 mm 23.2 mm/hr 01:24 hrs 16.1 km/hr 3.2 km/hr 20.9 km
22/04/2014 19.7C 10.6C 14.5C 1020.9 hPa 1017.2 hPa 2.0 mm 20.0 mm/hr 18:02 hrs 14.5 km/hr 3.2 km/hr 10.5 km
23/04/2014 19.4C 9.9C 13.0C 1022.7 hPa 1020.6 hPa 0.8 mm 9.2 mm/hr 01:01 hrs 14.5 km/hr 1.6 km/hr 6.8 km
24/04/2014 18.3C 9.3C 14.0C 1022.6 hPa 1020.3 hPa 2.2 mm 64.8 mm/hr 12:15 hrs 14.5 km/hr 1.6 km/hr 3.0 km
25/04/2014 20.3C 13.4C 16.3C 1021.5 hPa 1018.9 hPa 0.2 mm 0.0 mm/hr 00:00 hrs 14.5 km/hr 1.6 km/hr 8.1 km
26/04/2014 18.6C 9.6C 14.3C 1022.5 hPa 1019.3 hPa 12.0 mm 116.4 mm/hr 02:13 hrs 11.3 km/hr 1.6 km/hr 9.0 km
27/04/2014 19.4C 7.7C 13.6C 1022.0 hPa 1009.7 hPa 0.0 mm 0.0 mm/hr 00:00 hrs 12.9 km/hr 3.2 km/hr 12.5 km
28/04/2014 17.1C 11.4C 14.1C 1009.8 hPa 1007.0 hPa 15.4 mm 198.6 mm/hr 02:31 hrs 22.5 km/hr 4.8 km/hr 43.7 km
29/04/2014 17.3C 9.8C 13.6C 1012.8 hPa 1005.5 hPa 2.4 mm 7.6 mm/hr 06:05 hrs 19.3 km/hr 4.8 km/hr 31.5 km
30/04/2014 19.2C 8.6C 12.5C 1014.0 hPa 1011.3 hPa 0.0 mm 0.0 mm/hr 00:00 hrs 9.7 km/hr 3.2 km/hr 3.1 km
Back to top                        
Tabled Data - scroll down 2013 Temperature Pressure Rain Wind
for earlier years Maximum Minimum Average Maximum Minimum Day Total Maximum Rain Rate High Gust Highest Av Run
C C C hPa hPa mm mm/hr time km/h km/h km
01/04/2013 23.1C 15.3C 18.2C 1017.4 hPa 1013.7 hPa 0.2 mm 0.0 mm/hr 00:00 hrs 8.0 km/hr 3.2 km/hr 9.7 km
02/04/2013 23.7C 14.0C 18.0C 1017.3 hPa 1014.3 hPa 0.0 mm 0.0 mm/hr 00:00 hrs 8.0 km/hr 3.2 km/hr 4.6 km
03/04/2013 23.7C 15.2C 18.6C 1015.1 hPa 1010.6 hPa 0.0 mm 0.0 mm/hr 00:00 hrs 12.9 km/hr 4.8 km/hr 14.6 km
04/04/2013 17.9C 11.7C 16.1C 1016.0 hPa 1010.1 hPa 7.4 mm 20.4 mm/hr 10:07 hrs 11.3 km/hr 3.2 km/hr 14.0 km
05/04/2013 21.7C 10.2C 14.9C 1018.9 hPa 1015.2 hPa 0.0 mm 0.0 mm/hr 00:00 hrs 11.3 km/hr 4.8 km/hr 16.9 km
06/04/2013 19.2C 8.9C 13.0C 1022.8 hPa 1017.6 hPa 4.6 mm 36.2 mm/hr 06:59 hrs 9.7 km/hr 3.2 km/hr 4.3 km
07/04/2013 20.3C 8.5C 12.3C 1023.6 hPa 1021.0 hPa 0.2 mm 0.0 mm/hr 00:00 hrs 11.3 km/hr 3.2 km/hr 5.5 km
08/04/2013 20.9C 7.8C 12.5C 1022.9 hPa 1019.1 hPa 0.2 mm 0.0 mm/hr 00:00 hrs 9.7 km/hr 3.2 km/hr 9.5 km
09/04/2013 19.9C 8.3C 13.0C 1021.2 hPa 1018.5 hPa 0.0 mm 0.0 mm/hr 00:00 hrs 11.3 km/hr 3.2 km/hr 7.7 km
10/04/2013 21.1C 9.8C 13.6C 1024.6 hPa 1020.7 hPa 11.0 mm 64.8 mm/hr 14:41 hrs 11.3 km/hr 3.2 km/hr 13.8 km
11/04/2013 21.4C 10.0C 14.4C 1025.8 hPa 1022.9 hPa 0.0 mm 0.0 mm/hr 00:00 hrs 11.3 km/hr 4.8 km/hr 11.5 km
12/04/2013 20.8C 11.3C 15.5C 1028.1 hPa 1024.8 hPa 4.4 mm 82.2 mm/hr 05:19 hrs 9.7 km/hr 3.2 km/hr 13.0 km
13/04/2013 21.6C 11.7C 15.2C 1029.2 hPa 1026.2 hPa 0.0 mm 0.0 mm/hr 00:00 hrs 8.0 km/hr 3.2 km/hr 8.5 km
14/04/2013 20.7C 11.5C 15.3C 1027.2 hPa 1019.7 hPa 0.2 mm 0.0 mm/hr 00:00 hrs 11.3 km/hr 3.2 km/hr 11.5 km
15/04/2013 17.8C 14.2C 16.0C 1020.1 hPa 1008.2 hPa 17.2 mm 20.2 mm/hr 10:14 hrs 30.6 km/hr 8.0 km/hr 84.1 km
16/04/2013 19.6C 16.3C 18.4C 1008.6 hPa 999.7 hPa 11.8 mm 9.4 mm/hr 12:34 hrs 27.4 km/hr 8.0 km/hr 114.2 km
17/04/2013 18.8C 15.2C 17.1C 1009.1 hPa 1000.4 hPa 4.4 mm 21.8 mm/hr 07:20 hrs 22.5 km/hr 6.4 km/hr 78.7 km
18/04/2013 20.7C 12.6C 16.4C 1013.6 hPa 1008.6 hPa 0.6 mm 0.0 mm/hr 00:00 hrs 11.3 km/hr 3.2 km/hr 20.1 km
19/04/2013 19.5C 11.9C 15.3C 1013.1 hPa 1008.4 hPa 1.0 mm 1.0 mm/hr 18:57 hrs 11.3 km/hr 3.2 km/hr 11.7 km
20/04/2013 22.6C 14.1C 17.3C 1012.0 hPa 1008.5 hPa 8.6 mm 54.0 mm/hr 16:42 hrs 17.7 km/hr 4.8 km/hr 11.3 km
21/04/2013 21.6C 14.6C 16.9C 1012.2 hPa 1008.8 hPa 13.8 mm 96.8 mm/hr 23:15 hrs 12.9 km/hr 4.8 km/hr 6.9 km
22/04/2013 19.7C 11.8C 15.4C 1010.0 hPa 1005.9 hPa 7.2 mm 65.8 mm/hr 13:20 hrs 11.3 km/hr 3.2 km/hr 9.4 km
23/04/2013 20.3C 11.5C 15.1C 1013.0 hPa 1009.7 hPa 3.2 mm 21.2 mm/hr 04:54 hrs 17.7 km/hr 3.2 km/hr 12.5 km
24/04/2013 18.0C 13.7C 15.4C 1013.7 hPa 1010.3 hPa 28.0 mm 157.8 mm/hr 21:48 hrs 17.7 km/hr 3.2 km/hr 13.7 km
25/04/2013 21.0C 13.6C 16.6C 1012.9 hPa 1009.8 hPa 4.8 mm 39.0 mm/hr 03:51 hrs 16.1 km/hr 4.8 km/hr 30.9 km
26/04/2013 19.9C 10.8C 15.0C 1015.1 hPa 1012.9 hPa 0.2 mm 0.0 mm/hr 00:00 hrs 20.9 km/hr 3.2 km/hr 25.9 km
27/04/2013 20.3C 14.4C 17.0C 1018.2 hPa 1012.7 hPa 0.8 mm 23.0 mm/hr 04:05 hrs 17.7 km/hr 4.8 km/hr 55.7 km
28/04/2013 21.0C 12.7C 16.4C 1021.9 hPa 1017.8 hPa 0.6 mm 0.0 mm/hr 00:00 hrs 9.7 km/hr 3.2 km/hr 13.1 km
29/04/2013 21.2C 12.3C 16.5C 1023.2 hPa 1020.8 hPa 0.2 mm 0.0 mm/hr 00:00 hrs 11.3 km/hr 3.2 km/hr 16.4 km
30/04/2013 20.3C 14.1C 17.2C 1022.2 hPa 1019.3 hPa 0.0 mm 0.0 mm/hr 00:00 hrs 11.3 km/hr 3.2 km/hr 13.7 km
Back to top                        
Tabled Data - scroll down 2012 Temperature Pressure Rain Wind
for earlier years Maximum Minimum Average Maximum Minimum Day Total Maximum Rain Rate High Gust Highest Av Run
C C C hPa hPa mm mm/hr time km/h km/h km
01/04/2012 21.9C 13.6C 16.8C 1021.8 hPa 1017.2 hPa 1.4 mm 5.0 mm/hr 19:27 hrs 20.9 km/hr 5.6 km/hr 67.2 km
02/04/2012 19.4C 15.1C 16.7C 1017.8 hPa 1010.5 hPa 1.0 mm 11.0 mm/hr 15:48 hrs 20.9 km/hr 7.2 km/hr 95.6 km
03/04/2012 21.9C 15.1C 18.1C 1010.7 hPa 1002.0 hPa 0.0 mm 0.0 mm/hr 00:00 hrs 27.4 km/hr 9.2 km/hr 103.4 km
04/04/2012 24.7C 16.9C 19.8C 1007.4 hPa 1002.3 hPa 0.0 mm 0.0 mm/hr 00:00 hrs 29.0 km/hr 10.1 km/hr 90.6 km
05/04/2012 24.2C 13.2C 19.0C 1017.0 hPa 1007.3 hPa 0.0 mm 0.0 mm/hr 00:00 hrs 20.9 km/hr 6.6 km/hr 63.8 km
06/04/2012 21.3C 11.9C 15.9C 1018.8 hPa 1016.1 hPa 0.0 mm 0.0 mm/hr 00:00 hrs 17.7 km/hr 5.4 km/hr 36.8 km
07/04/2012 21.4C 10.7C 15.0C 1018.5 hPa 1014.8 hPa 0.6 mm 0.0 mm/hr 00:00 hrs 17.7 km/hr 5.0 km/hr 20.4 km
08/04/2012 21.2C 11.2C 15.3C 1016.5 hPa 1013.5 hPa 0.0 mm 0.0 mm/hr 00:00 hrs 17.7 km/hr 3.8 km/hr 23.3 km
09/04/2012 20.8C 10.2C 14.6C 1019.6 hPa 1016.3 hPa 0.0 mm 0.0 mm/hr 00:00 hrs 11.3 km/hr 3.4 km/hr 19.2 km
10/04/2012 21.2C 11.6C 15.2C 1019.3 hPa 1016.1 hPa 0.0 mm 0.0 mm/hr 00:00 hrs 9.7 km/hr 2.7 km/hr 10.7 km
11/04/2012 18.9C 13.3C 16.2C 1016.2 hPa 1006.9 hPa 8.0 mm 16.8 mm/hr 19:50 hrs 16.1 km/hr 5.0 km/hr 27.8 km
12/04/2012 19.1C 13.4C 15.8C 1011.0 hPa 1004.0 hPa 1.8 mm 8.8 mm/hr 00:02 hrs 22.5 km/hr 4.7 km/hr 54.2 km
13/04/2012 19.3C 12.6C 15.4C 1016.4 hPa 1010.7 hPa 2.0 mm 35.0 mm/hr 08:07 hrs 14.5 km/hr 4.3 km/hr 56.0 km
14/04/2012 19.8C 12.0C 15.1C 1025.1 hPa 1016.3 hPa 1.0 mm 1.4 mm/hr 01:31 hrs 17.7 km/hr 4.6 km/hr 25.5 km
15/04/2012 19.4C 12.3C 15.1C 1028.3 hPa 1025.1 hPa 0.0 mm 0.0 mm/hr 00:00 hrs 11.3 km/hr 3.4 km/hr 13.4 km
16/04/2012 21.6C 11.7C 15.4C 1028.2 hPa 1025.4 hPa 0.0 mm 0.0 mm/hr 00:00 hrs 11.3 km/hr 2.7 km/hr 12.0 km
17/04/2012 18.3C 11.0C 14.1C 1027.7 hPa 1025.1 hPa 0.0 mm 0.0 mm/hr 00:00 hrs 9.7 km/hr 2.0 km/hr 8.2 km
18/04/2012 19.7C 9.2C 13.4C 1030.3 hPa 1026.3 hPa 0.0 mm 0.0 mm/hr 00:00 hrs 12.9 km/hr 4.8 km/hr 15.8 km
19/04/2012 18.9C 7.4C 12.6C 1035.0 hPa 1030.2 hPa 0.0 mm 0.0 mm/hr 00:00 hrs 11.3 km/hr 4.0 km/hr 25.1 km
20/04/2012 19.9C 9.1C 13.4C 1036.6 hPa 1034.7 hPa 0.0 mm 0.0 mm/hr 00:00 hrs 12.9 km/hr 3.2 km/hr 10.8 km
21/04/2012 19.9C 8.9C 13.3C 1035.9 hPa 1032.7 hPa 0.0 mm 0.0 mm/hr 00:00 hrs 8.0 km/hr 2.9 km/hr 8.0 km
22/04/2012 20.1C 9.4C 13.5C 1033.5 hPa 1030.6 hPa 0.0 mm 0.0 mm/hr 00:00 hrs 9.7 km/hr 3.0 km/hr 11.5 km
23/04/2012 20.6C 10.0C 13.7C 1032.6 hPa 1030.1 hPa 0.0 mm 0.0 mm/hr 00:00 hrs 12.9 km/hr 4.4 km/hr 22.1 km
24/04/2012 20.8C 9.6C 13.6C 1032.0 hPa 1028.3 hPa 0.0 mm 0.0 mm/hr 00:00 hrs 11.3 km/hr 4.1 km/hr 16.7 km
25/04/2012 20.4C 10.1C 14.7C 1029.4 hPa 1023.8 hPa 0.0 mm 0.0 mm/hr 00:00 hrs 17.7 km/hr 4.0 km/hr 19.5 km
26/04/2012 19.9C 12.0C 15.7C 1024.0 hPa 1012.7 hPa 0.0 mm 0.0 mm/hr 00:00 hrs 19.3 km/hr 4.8 km/hr 42.4 km
27/04/2012 20.9C 14.2C 17.2C 1013.0 hPa 1006.8 hPa 13.4 mm 45.8 mm/hr 23:24 hrs 17.7 km/hr 4.7 km/hr 50.9 km
28/04/2012 18.5C 12.4C 14.6C 1019.6 hPa 1010.0 hPa 1.6 mm 14.0 mm/hr 04:23 hrs 16.1 km/hr 5.0 km/hr 39.6 km
29/04/2012 17.4C 11.7C 13.6C 1020.1 hPa 1014.7 hPa 0.8 mm 1.2 mm/hr 16:58 hrs 12.9 km/hr 4.7 km/hr 17.0 km
30/04/2012 16.7C 10.1C 13.6C 1018.3 hPa 1012.6 hPa 1.4 mm 11.2 mm/hr 06:03 hrs 16.1 km/hr 3.2 km/hr 23.1 km
Back to top                        
2011 Temperature Pressure Rain Wind
Maximum Minimum Average Maximum Minimum Day Total Maximum Rain Rate High Gust Highest Av Run
C C C hPa hPa mm mm/hr time km/h km/h km
01/04/2011 22.1C 13.3C 16.6C 1019.5 hPa 1014.3 hPa 1.4 mm 4.2 mm/hr 18:07 hrs 11.3 km/hr 3.5 km/hr 14.4 km
02/04/2011 21.8C 10.4C 15.0C 1021.3 hPa 1018.8 hPa 0.2 mm 0.0 mm/hr 00:00 hrs 8.0 km/hr 1.8 km/hr 4.3 km
03/04/2011 23.6C 11.4C 16.2C 1021.0 hPa 1017.0 hPa 10.2 mm 102.0 mm/hr 20:38 hrs 12.9 km/hr 4.1 km/hr 22.2 km
04/04/2011 22.6C 15.0C 18.1C 1017.7 hPa 1008.1 hPa 0.0 mm 0.0 mm/hr 00:00 hrs 16.1 km/hr 6.7 km/hr 35.6 km
05/04/2011 16.6C 9.9C 12.8C 1010.6 hPa 1005.8 hPa 25.2 mm 62.0 mm/hr 13:29 hrs 17.7 km/hr 6.3 km/hr 47.4 km
06/04/2011 19.6C 9.3C 13.8C 1015.0 hPa 1010.5 hPa 0.8 mm 0.0 mm/hr 00:00 hrs 14.5 km/hr 5.4 km/hr 36.9 km
07/04/2011 17.9C 12.9C 14.9C 1014.8 hPa 1009.6 hPa 7.4 mm 55.6 mm/hr 21:04 hrs 32.2 km/hr 6.4 km/hr 75.7 km
08/04/2011 18.9C 9.2C 14.2C 1022.5 hPa 1012.0 hPa 1.0 mm 18.8 mm/hr 01:04 hrs 14.5 km/hr 4.4 km/hr 22.4 km
09/04/2011 22.2C 11.1C 14.9C 1025.5 hPa 1022.1 hPa 0.0 mm 0.0 mm/hr 00:00 hrs 8.0 km/hr 1.6 km/hr 3.3 km
10/04/2011 22.0C 11.6C 15.5C 1025.7 hPa 1022.8 hPa 0.0 mm 0.0 mm/hr 00:00 hrs 4.8 km/hr 0.7 km/hr 0.3 km
11/04/2011 21.8C 12.0C 15.7C 1024.4 hPa 1021.8 hPa 0.0 mm 0.0 mm/hr 00:00 hrs 9.7 km/hr 3.7 km/hr 9.2 km
12/04/2011 21.6C 10.7C 14.7C 1025.3 hPa 1023.0 hPa 0.0 mm 0.0 mm/hr 00:00 hrs 8.0 km/hr 3.1 km/hr 6.3 km
13/04/2011 22.1C 12.6C 16.0C 1025.2 hPa 1020.8 hPa 0.0 mm 0.0 mm/hr 00:00 hrs 8.0 km/hr 3.4 km/hr 8.4 km
14/04/2011 23.3C 12.7C 16.1C 1021.3 hPa 1016.2 hPa 0.0 mm 0.0 mm/hr 00:00 hrs 8.0 km/hr 2.0 km/hr 6.0 km
15/04/2011 22.2C 12.3C 16.6C 1018.1 hPa 1015.6 hPa 0.0 mm 0.0 mm/hr 00:00 hrs 12.9 km/hr 5.2 km/hr 15.9 km
16/04/2011 19.2C 14.9C 17.1C 1016.4 hPa 1009.2 hPa 20.2 mm 35.4 mm/hr 11:23 hrs 12.9 km/hr 4.3 km/hr 27.3 km
17/04/2011 20.4C 13.1C 16.0C 1009.5 hPa 1003.5 hPa 2.0 mm 28.6 mm/hr 19:08 hrs 19.3 km/hr 4.7 km/hr 30.9 km
18/04/2011 14.7C 8.1C 11.8C 1014.7 hPa 1002.0 hPa 9.6 mm 106.6 mm/hr 11:54 hrs 25.7 km/hr 10.6 km/hr 85.9 km
19/04/2011 17.7C 6.6C 11.9C 1020.6 hPa 1014.6 hPa 0.2 mm 0.0 mm/hr 00:00 hrs 12.9 km/hr 2.8 km/hr 16.2 km
20/04/2011 19.8C 12.2C 14.9C 1020.2 hPa 1017.4 hPa 0.4 mm 0.0 mm/hr 00:00 hrs 12.9 km/hr 4.9 km/hr 37.7 km
21/04/2011 19.8C 11.2C 14.5C 1022.5 hPa 1019.9 hPa 0.0 mm 0.0 mm/hr 00:00 hrs 6.4 km/hr 1.7 km/hr 2.0 km
22/04/2011 20.2C 11.9C 14.7C 1023.6 hPa 1021.7 hPa 0.6 mm 0.0 mm/hr 00:00 hrs 14.5 km/hr 5.3 km/hr 34.1 km
23/04/2011 21.9C 12.2C 15.8C 1025.6 hPa 1022.9 hPa 0.0 mm 0.0 mm/hr 00:00 hrs 12.9 km/hr 4.1 km/hr 29.0 km
24/04/2011 19.7C 14.1C 16.8C 1025.3 hPa 1019.4 hPa 0.2 mm 0.0 mm/hr 00:00 hrs 11.3 km/hr 3.8 km/hr 33.8 km
25/04/2011 17.9C 15.2C 16.3C 1019.4 hPa 1006.6 hPa 37.8 mm 27.8 mm/hr 17:58 hrs 14.5 km/hr 5.5 km/hr 44.7 km
26/04/2011 16.0C 14.1C 14.9C 1006.8 hPa 1001.8 hPa 15.4 mm 23.0 mm/hr 02:44 hrs 19.3 km/hr 5.5 km/hr 53.5 km
27/04/2011 16.4C 12.0C 14.3C 1013.5 hPa 1006.4 hPa 2.8 mm 24.6 mm/hr 14:21 hrs 11.3 km/hr 3.2 km/hr 6.8 km
28/04/2011 16.1C 11.4C 12.8C 1020.0 hPa 1012.5 hPa 2.8 mm 10.4 mm/hr 10:21 hrs 12.9 km/hr 3.9 km/hr 33.0 km
29/04/2011 18.6C 8.8C 12.5C 1028.5 hPa 1020.0 hPa 0.0 mm 0.0 mm/hr 00:00 hrs 19.3 km/hr 5.5 km/hr 46.2 km
30/04/2011 17.0C 7.6C 12.3C 1029.0 hPa 1024.5 hPa 0.0 mm 0.0 mm/hr 00:00 hrs 12.9 km/hr 4.6 km/hr 37.1 km
Back to top                        
2010 Temperature Pressure Rain Wind
Maximum Minimum Average Maximum Minimum Day Total Maximum Rain Rate High Gust Highest Av Run
C C C hPa hPa mm mm/hr time km/h km/h km
01/04/2010 21.3C 12.7C 16.1C 1032.1 hPa 1027.7 hPa 0.0 mm 0.0 mm/hr 00:00 hrs 6.4 km/hr 1.7 km/hr 5.4 km
02/04/2010 20.2C 11.5C 15.2C 1029.0 hPa 1024.0 hPa 0.0 mm 0.0 mm/hr 00:00 hrs 8.0 km/hr 2.5 km/hr 9.4 km
03/04/2010 21.3C 11.0C 15.6C 1024.6 hPa 1016.0 hPa 0.0 mm 0.0 mm/hr 00:00 hrs 12.9 km/hr 4.4 km/hr 29.3 km
04/04/2010 20.8C 13.9C 17.0C 1016.0 hPa 1007.3 hPa 0.2 mm 0.0 mm/hr 00:00 hrs 8.0 km/hr 3.6 km/hr 18.3 km
05/04/2010 24.1C 13.7C 17.8C 1009.1 hPa 1004.6 hPa 9.2 mm 66.2 mm/hr 19:13 hrs 17.7 km/hr 4.9 km/hr 35.5 km
06/04/2010 21.9C 13.4C 16.4C 1011.6 hPa 1003.8 hPa 2.4 mm 11.0 mm/hr 05:56 hrs 8.0 km/hr 2.6 km/hr 10.4 km
07/04/2010 20.7C 10.0C 14.6C 1023.8 hPa 1011.5 hPa 0.0 mm 0.0 mm/hr 00:00 hrs 9.7 km/hr 3.6 km/hr 10.7 km
08/04/2010 20.4C 7.6C 12.6C 1025.8 hPa 1022.1 hPa 0.0 mm 0.0 mm/hr 00:00 hrs 11.3 km/hr 3.5 km/hr 17.5 km
09/04/2010 20.9C 8.2C 13.1C 1024.1 hPa 1021.2 hPa 0.0 mm 0.0 mm/hr 00:00 hrs 9.7 km/hr 3.5 km/hr 16.2 km
10/04/2010 22.2C 9.7C 14.2C 1025.6 hPa 1022.8 hPa 0.0 mm 0.0 mm/hr 00:00 hrs 11.3 km/hr 6.4 km/hr 14.4 km
11/04/2010 22.2C 10.8C 14.7C 1025.7 hPa 1023.2 hPa 0.0 mm 0.0 mm/hr 00:00 hrs 12.9 km/hr 4.7 km/hr 24.2 km
12/04/2010 20.3C 10.7C 14.4C 1025.0 hPa 1020.7 hPa 0.0 mm 0.0 mm/hr 00:00 hrs 9.7 km/hr 3.4 km/hr 18.9 km
13/04/2010 19.2C 10.9C 15.1C 1020.8 hPa 1010.0 hPa 0.0 mm 0.0 mm/hr 00:00 hrs 22.5 km/hr 7.1 km/hr 47.5 km
14/04/2010 20.0C 13.2C 16.6C 1013.0 hPa 1007.5 hPa 10.6 mm 28.8 mm/hr 04:06 hrs 16.1 km/hr 4.2 km/hr 27.3 km
15/04/2010 20.4C 11.8C 15.3C 1014.0 hPa 1011.5 hPa 1.6 mm 14.4 mm/hr 17:29 hrs 11.3 km/hr 4.4 km/hr 25.5 km
16/04/2010 18.9C 9.8C 14.9C 1024.4 hPa 1012.7 hPa 1.2 mm 25.2 mm/hr 05:04 hrs 17.7 km/hr 6.5 km/hr 56.4 km
17/04/2010 16.7C 9.1C 13.1C 1026.6 hPa 1024.3 hPa 0.0 mm 0.0 mm/hr 00:00 hrs 11.3 km/hr 3.9 km/hr 29.4 km
18/04/2010 19.7C 11.5C 15.2C 1025.6 hPa 1022.2 hPa 0.2 mm 0.0 mm/hr 00:00 hrs 12.9 km/hr 4.9 km/hr 37.5 km
19/04/2010 19.0C 11.3C 14.7C 1022.2 hPa 1015.7 hPa 3.4 mm 14.6 mm/hr 16:09 hrs 16.1 km/hr 6.3 km/hr 54.8 km
20/04/2010 18.9C 11.5C 14.9C 1018.8 hPa 1014.6 hPa 0.6 mm 15.4 mm/hr 05:03 hrs 19.3 km/hr 6.1 km/hr 49.4 km
21/04/2010 20.8C 10.1C 14.4C 1021.9 hPa 1017.7 hPa 1.8 mm 3.6 mm/hr 17:52 hrs 11.3 km/hr 2.9 km/hr 11.4 km
22/04/2010 16.7C 12.5C 14.2C 1023.6 hPa 1021.4 hPa 3.6 mm 5.0 mm/hr 06:33 hrs 8.0 km/hr 2.7 km/hr 11.3 km
23/04/2010 18.4C 11.9C 14.3C 1022.3 hPa 1019.0 hPa 1.4 mm 5.2 mm/hr 01:03 hrs 11.3 km/hr 2.9 km/hr 9.5 km
24/04/2010 21.7C 14.3C 16.8C 1023.6 hPa 1018.6 hPa 1.8 mm 15.6 mm/hr 02:05 hrs 9.7 km/hr 3.5 km/hr 15.8 km
25/04/2010 23.3C 13.4C 16.5C 1025.3 hPa 1022.6 hPa 0.0 mm 0.0 mm/hr 00:00 hrs 8.0 km/hr 3.0 km/hr 11.2 km
26/04/2010 21.4C 14.2C 17.1C 1024.7 hPa 1021.4 hPa 0.0 mm 0.0 mm/hr 00:00 hrs 19.3 km/hr 5.9 km/hr 62.3 km
27/04/2010 20.3C 14.3C 17.6C 1021.9 hPa 1017.3 hPa 17.2 mm 109.8 mm/hr 18:10 hrs 22.5 km/hr 7.7 km/hr 83.3 km
28/04/2010 19.7C 12.6C 14.9C 1024.8 hPa 1021.2 hPa 0.0 mm 0.0 mm/hr 00:00 hrs 3.2 km/hr 0.9 km/hr 1.5 km
29/04/2010 21.4C 12.2C 15.0C 1023.9 hPa 1020.0 hPa 0.0 mm 0.0 mm/hr 00:00 hrs 8.0 km/hr 1.8 km/hr 3.2 km
30/04/2010 19.9C 10.9C 14.9C 1020.1 hPa 1013.5 hPa 1.4 mm 12.0 mm/hr 23:44 hrs 19.3 km/hr 5.3 km/hr 28.4 km
Back to top                        
2009 Temperature Pressure Rain Wind
Maximum Minimum Average Maximum Minimum Day Total Maximum Rain Rate High Gust Highest Av Run
C C C hPa hPa mm mm/hr time km/h km/h km
01/04/2009 18.7C 13.6C 16.2C 1030.0 hPa 1025.0 hPa 0.0 mm          
02/04/2009 18.7C 9.0C 13.9C 1033.0 hPa 1032.0 hPa 0.0 mm          
03/04/2009 19.6C 10.0C 14.8C 1034.0 hPa 1033.0 hPa 0.0 mm          
04/04/2009 19.6C 11.0C 15.3C 1032.0 hPa 1029.0 hPa 0.0 mm          
05/04/2009 21.1C 12.2C 16.7C 1028.0 hPa 1026.0 hPa 0.0 mm          
06/04/2009 21.1C 12.1C 16.6C 1025.0 hPa 1021.0 hPa 0.0 mm          
07/04/2009 19.8C 13.7C 16.8C 1018.0 hPa 1013.0 hPa 0.0 mm          
08/04/2009 16.5C 14.4C 15.5C 1009.0 hPa 1009.0 hPa 6.3 mm          
09/04/2009 15.5C 9.6C 12.6C 1012.0 hPa 1007.0 hPa 12.1 mm          
10/04/2009 16.4C 6.9C 11.7C 1027.0 hPa 1024.0 hPa 0.4 mm          
11/04/2009 16.0C 10.7C 13.4C 1030.0 hPa 1029.0 hPa 4.9 mm          
12/04/2009 16.9C 12.3C 14.6C 1030.0 hPa 1029.0 hPa 0.0 mm          
13/04/2009 19.0C 12.5C 15.8C 1030.0 hPa 1029.0 hPa 0.0 mm          
14/04/2009 19.6C 13.4C 16.5C 1030.0 hPa 1030.0 hPa 0.4 mm          
15/04/2009 19.8C 13.0C 16.4C 1028.0 hPa 1027.0 hPa 0.0 mm          
16/04/2009 19.8C 13.0C 16.4C 1025.0 hPa 1023.0 hPa 0.0 mm          
17/04/2009 19.2C 11.6C 15.4C 1021.0 hPa 1021.0 hPa 0.0 mm          
18/04/2009 19.0C 12.8C 15.9C 1020.0 hPa 1018.0 hPa 0.0 mm          
19/04/2009 16.5C 13.6C 15.1C 1015.0 hPa 1009.0 hPa 2.2 mm          
20/04/2009 16.8C 15.4C 16.1C 1006.0 hPa 1003.0 hPa 14.4 mm          
21/04/2009 14.6C 9.7C 12.2C 1020.0 hPa 1013.0 hPa 0.4 mm          
22/04/2009 16.5C 8.8C 12.7C 1022.0 hPa 1021.0 hPa 0.0 mm          
23/04/2009 14.0C 12.0C 13.0C 1023.0 hPa 1022.0 hPa 0.0 mm          
24/04/2009 16.0C 14.0C 15.0C 1022.0 hPa 1020.0 hPa 0.0 mm          
25/04/2009 18.2C 15.9C 17.1C 1018.0 hPa 1018.0 hPa 6.3 mm          
26/04/2009 16.0C 14.0C 15.0C 1019.0 hPa 1018.0 hPa 1.8 mm          
27/04/2009 19.2C 16.5C 17.9C 1021.0 hPa 1020.0 hPa 0.4 mm          
28/04/2009 21.3C 16.5C 18.9C 1020.0 hPa 1017.0 hPa 6.7 mm          
29/04/2009 18.0C 16.1C 17.1C 1014.0 hPa 1013.0 hPa 12.1 mm          
30/04/2009 17.3C 12.6C 15.0C 1016.0 hPa 1013.0 hPa 0.4 mm          
Back to top                        
2008 Temperature Pressure Rain Wind
Maximum Minimum Average Maximum Minimum Day Total Maximum Rain Rate High Gust Highest Av Run
C C C hPa hPa mm mm/hr time km/h km/h km
01/04/2008 20.0C 18.3C 19.2C 1016.0 hPa 1015.0 hPa 5.4 mm          
02/04/2008 20.0C 14.3C 17.2C 1021.0 hPa 1019.0 hPa 0.0 mm          
03/04/2008 19.0C 13.2C 16.1C 1021.0 hPa 1019.0 hPa 3.1 mm          
04/04/2008 21.0C 12.9C 17.0C 1018.0 hPa 1018.0 hPa 0.4 mm          
05/04/2008 19.7C 13.6C 16.7C 1018.0 hPa 1018.0 hPa 0.0 mm          
06/04/2008 21.4C 14.1C 17.8C 1016.0 hPa 1015.0 hPa 0.0 mm          
07/04/2008 22.0C 14.4C 18.2C 1015.0 hPa 1014.0 hPa 0.0 mm          
08/04/2008 20.4C 12.3C 16.4C 1017.0 hPa 1015.0 hPa 0.0 mm          
09/04/2008 21.0C 10.7C 15.9C 1025.0 hPa 1023.0 hPa 0.0 mm          
10/04/2008 20.1C 11.7C 15.9C 1028.0 hPa 1028.0 hPa 0.0 mm          
11/04/2008 20.9C 12.3C 16.6C 1028.0 hPa 1028.0 hPa 0.0 mm          
12/04/2008 18.8C 12.9C 15.9C 1028.0 hPa 1027.0 hPa 0.0 mm          
13/04/2008 18.6C 14.3C 16.5C 1024.0 hPa 1022.0 hPa 5.4 mm          
14/04/2008 18.0C 15.1C 16.6C 1019.0 hPa 1015.0 hPa 35.1 mm          
15/04/2008 18.0C 17.3C 17.7C 1013.0 hPa 1012.0 hPa 49.0 mm          
16/04/2008 18.7C 15.2C 17.0C 1010.0 hPa 1008.0 hPa 4.9 mm          
17/04/2008 19.0C 15.6C 17.3C 1008.0 hPa 1005.0 hPa 5.4 mm          
18/04/2008 18.7C 14.2C 16.5C 1013.0 hPa 1009.0 hPa 4.5 mm          
19/04/2008 15.4C 12.3C 13.9C 1019.0 hPa 1015.0 hPa 1.3 mm          
20/04/2008 15.3C 6.5C 10.9C 1023.0 hPa 1023.0 hPa 0.4 mm          
21/04/2008 16.0C 8.2C 12.1C 1018.0 hPa 1012.0 hPa 0.0 mm          
22/04/2008 17.2C 11.4C 14.3C 1011.0 hPa 1011.0 hPa 4.5 mm          
23/04/2008 17.6C 12.0C 14.8C 1018.0 hPa 1015.0 hPa 0.9 mm          
24/04/2008 18.5C 13.2C 15.9C 1025.0 hPa 1022.0 hPa 0.0 mm          
25/04/2008 16.4C 12.0C 14.2C 1024.0 hPa 1024.0 hPa 0.0 mm          
26/04/2008 17.7C 12.7C 15.2C 1021.0 hPa 1020.0 hPa 0.0 mm          
27/04/2008 19.6C 16.2C 17.9C 1019.0 hPa 1017.0 hPa 7.6 mm          
28/04/2008 20.2C 14.1C 17.2C 1017.0 hPa 1015.0 hPa 0.4 mm          
29/04/2008 18.9C 16.8C 17.9C 1012.0 hPa 1007.0 hPa 12.1 mm          
30/04/2008 19.0C 14.7C 16.9C 1005.0 hPa 1005.0 hPa 4.5 mm          
Back to top                        
2007 Temperature Pressure Rain Wind
Maximum Minimum Average Maximum Minimum Day Total Maximum Rain Rate High Gust Highest Av Run
C C C hPa hPa mm mm/hr time km/h km/h km
01/04/2007                      
02/04/2007                      
03/04/2007                      
04/04/2007                      
05/04/2007                      
06/04/2007 21.5C 11.5C 16.5C 1014.0 hPa 1011.0 hPa            
07/04/2007 18.3C 12.2C 15.3C 1017.0 hPa 1014.0 hPa            
08/04/2007 21.8C 12.8C 17.3C 1022.0 hPa 1017.0 hPa            
09/04/2007 22.2C 13.5C 17.9C 1025.0 hPa 1023.0 hPa            
10/04/2007 21.8C 14.0C 17.9C 1021.0 hPa 1018.0 hPa            
11/04/2007 20.6C 13.3C 17.0C 1013.0 hPa 1007.0 hPa            
12/04/2007 20.6C 10.2C 15.4C 998.0 hPa 996.0 hPa            
13/04/2007 17.5C 10.2C 13.9C 1002.0 hPa 994.0 hPa            
14/04/2007 18.4C 12.1C 15.3C 1011.0 hPa 1008.0 hPa            
15/04/2007 19.1C 13.3C 16.2C 1014.0 hPa 1012.0 hPa            
16/04/2007 18.9C 12.3C 15.6C 1016.0 hPa 1014.0 hPa            
17/04/2007 19.4C 12.3C 15.9C 1018.0 hPa 1014.0 hPa            
18/04/2007 19.4C 12.3C 15.9C 1019.0 hPa 1016.0 hPa            
19/04/2007 17.4C 9.1C 13.3C 1022.0 hPa 1019.0 hPa            
20/04/2007 18.4C 9.8C 14.1C 1022.0 hPa 1022.0 hPa            
21/04/2007 17.8C 10.1C 14.0C 1022.0 hPa 1021.0 hPa            
22/04/2007 17.4C 11.0C 14.2C 1023.0 hPa 1022.0 hPa            
23/04/2007 19.7C 10.9C 15.3C 1025.0 hPa 1023.0 hPa            
24/04/2007 19.7C 12.1C 15.9C 1026.0 hPa 1024.0 hPa            
25/04/2007 20.1C 12.3C 16.2C 1024.0 hPa 1024.0 hPa            
26/04/2007 20.4C 12.1C 16.3C 1022.0 hPa 1022.0 hPa            
27/04/2007 20.4C 11.4C 15.9C 1018.0 hPa 1014.0 hPa            
28/04/2007 20.2C 13.9C 17.1C 1007.0 hPa 1005.0 hPa            
29/04/2007 16.0C 13.6C 14.8C 1014.0 hPa 1007.0 hPa            
30/04/2007 17.2C 15.5C 16.4C 1012.0 hPa 1008.0 hPa            
Back to top